createdAt,value
2017-08-12T00:00:33.184Z,5.9
2017-08-12T00:01:35.604Z,5.9
2017-08-12T00:02:38.791Z,5.9
2017-08-12T00:03:41.209Z,5.9
2017-08-12T00:04:43.978Z,5.9
2017-08-12T00:05:46.402Z,5.9
2017-08-12T00:06:49.834Z,5.9
2017-08-12T00:07:52.263Z,5.9
2017-08-12T00:08:54.672Z,5.9
2017-08-12T00:09:57.136Z,5.9
2017-08-12T00:10:59.569Z,5.9
2017-08-12T00:12:02.689Z,5.8
2017-08-12T00:13:05.465Z,5.9
2017-08-12T00:14:07.909Z,5.9
2017-08-12T00:15:11.078Z,5.9
2017-08-12T00:16:13.502Z,5.9
2017-08-12T00:17:16.283Z,5.9
2017-08-12T00:18:18.708Z,5.9
2017-08-12T00:19:21.499Z,5.8
2017-08-12T00:20:23.910Z,5.9
2017-08-12T00:21:26.322Z,5.9
2017-08-12T00:22:28.731Z,5.9
2017-08-12T00:23:31.152Z,5.9
2017-08-12T00:24:34.395Z,5.8
2017-08-12T00:25:37.155Z,5.9
2017-08-12T00:26:39.577Z,5.9
2017-08-12T00:27:42.021Z,5.9
2017-08-12T00:28:44.444Z,5.9
2017-08-12T00:29:46.867Z,5.9
2017-08-12T00:30:49.627Z,5.9
2017-08-12T00:31:52.054Z,5.8
2017-08-12T00:32:54.496Z,5.9
2017-08-12T00:33:56.901Z,5.8
2017-08-12T00:34:59.784Z,5.9
2017-08-12T00:36:02.545Z,5.8
2017-08-12T00:37:04.957Z,5.9
2017-08-12T00:38:07.377Z,5.8
2017-08-12T00:39:10.138Z,5.9
2017-08-12T00:40:12.910Z,5.9
2017-08-12T00:41:15.334Z,5.9
2017-08-12T00:42:18.485Z,5.8
2017-08-12T00:43:20.904Z,5.9
2017-08-12T00:44:23.316Z,5.9
2017-08-12T00:45:25.741Z,5.9
2017-08-12T00:46:28.150Z,5.9
2017-08-12T00:47:30.912Z,5.8
2017-08-12T00:48:33.338Z,5.8
2017-08-12T00:49:36.094Z,5.8
2017-08-12T00:50:39.218Z,5.8
2017-08-12T00:51:41.974Z,5.9
2017-08-12T00:52:44.874Z,5.8
2017-08-12T00:53:47.631Z,5.9
2017-08-12T00:54:50.418Z,5.8
2017-08-12T00:55:53.169Z,5.9
2017-08-12T00:56:56.303Z,5.8
2017-08-12T00:57:58.719Z,5.8
2017-08-12T00:59:01.130Z,5.9
2017-08-12T01:00:04.242Z,5.9
2017-08-12T01:01:06.662Z,5.9
2017-08-12T01:02:09.411Z,5.9
2017-08-12T01:03:12.178Z,5.9
2017-08-12T01:04:15.388Z,5.9
2017-08-12T01:05:17.796Z,5.8
2017-08-12T01:06:20.232Z,5.9
2017-08-12T01:07:22.655Z,5.9
2017-08-12T01:08:25.748Z,5.9
2017-08-12T01:09:28.156Z,5.9
2017-08-12T01:10:30.576Z,5.7
2017-08-12T01:11:33.717Z,5.9
2017-08-12T01:12:36.494Z,5.9
2017-08-12T01:13:39.579Z,5.9
2017-08-12T01:14:42.667Z,5.9
2017-08-12T01:15:45.082Z,5.9
2017-08-12T01:16:48.172Z,5.9
2017-08-12T01:17:50.932Z,6
2017-08-12T01:18:53.971Z,5.9
2017-08-12T01:19:56.735Z,5.9
2017-08-12T01:20:59.491Z,5.9
2017-08-12T01:22:01.903Z,5.9
2017-08-12T01:23:04.681Z,5.9
2017-08-12T01:24:07.471Z,5.9
2017-08-12T01:25:09.895Z,5.9
2017-08-12T01:26:12.782Z,5.9
2017-08-12T01:27:15.198Z,5.9
2017-08-12T01:28:17.617Z,5.9
2017-08-12T01:29:20.035Z,5.9
2017-08-12T01:30:22.791Z,5.9
2017-08-12T01:31:25.217Z,5.9
2017-08-12T01:32:27.641Z,5.8
2017-08-12T01:33:30.895Z,5.9
2017-08-12T01:34:33.652Z,5.9
2017-08-12T01:35:36.414Z,5.8
2017-08-12T01:36:38.835Z,5.9
2017-08-12T01:37:41.277Z,5.9
2017-08-12T01:38:44.031Z,6
2017-08-12T01:39:46.459Z,5.9
2017-08-12T01:40:48.945Z,5.9
2017-08-12T01:41:51.486Z,5.9
2017-08-12T01:42:54.247Z,5.9
2017-08-12T01:43:56.982Z,5.9
2017-08-12T01:44:59.393Z,5.9
2017-08-12T01:46:02.160Z,5.9
2017-08-12T01:47:04.586Z,5.9
2017-08-12T01:48:07.333Z,5.9
2017-08-12T01:49:09.751Z,5.9
2017-08-12T01:50:12.189Z,5.9
2017-08-12T01:51:14.757Z,5.9
2017-08-12T01:52:17.189Z,5.9
2017-08-12T01:53:19.941Z,5.9
2017-08-12T01:54:22.697Z,5.9
2017-08-12T01:55:25.116Z,5.9
2017-08-12T01:56:27.532Z,5.9
2017-08-12T01:57:29.948Z,5.8
2017-08-12T01:58:32.706Z,5.8
2017-08-12T01:59:35.164Z,5.9
2017-08-12T02:00:38.257Z,5.9
2017-08-12T02:01:41.420Z,5.8
2017-08-12T02:02:43.844Z,5.8
2017-08-12T02:03:46.263Z,5.8
2017-08-12T02:04:48.674Z,5.9
2017-08-12T02:05:51.096Z,5.7
2017-08-12T02:06:53.508Z,5.8
2017-08-12T02:07:55.940Z,5.8
2017-08-12T02:08:58.787Z,5.8
2017-08-12T02:10:01.215Z,5.9
2017-08-12T02:11:04.307Z,5.8
2017-08-12T02:12:06.718Z,5.8
2017-08-12T02:13:09.513Z,5.8
2017-08-12T02:14:12.597Z,5.8
2017-08-12T02:15:15.373Z,5.8
2017-08-12T02:16:18.098Z,5.9
2017-08-12T02:17:20.511Z,5.8
2017-08-12T02:18:23.618Z,5.8
2017-08-12T02:19:26.378Z,5.8
2017-08-12T02:20:28.790Z,5.8
2017-08-12T02:21:31.207Z,5.8
2017-08-12T02:22:33.964Z,5.8
2017-08-12T02:23:37.024Z,5.8
2017-08-12T02:24:39.441Z,5.8
2017-08-12T02:25:41.868Z,5.8
2017-08-12T02:26:44.277Z,5.8
2017-08-12T02:27:46.697Z,5.8
2017-08-12T02:28:49.473Z,5.8
2017-08-12T02:29:52.219Z,5.8
2017-08-12T02:30:55.406Z,5.8
2017-08-12T02:31:57.833Z,5.8
2017-08-12T02:33:00.257Z,5.8
2017-08-12T02:34:03.322Z,5.8
2017-08-12T02:35:06.423Z,5.8
2017-08-12T02:36:09.164Z,5.8
2017-08-12T02:37:11.921Z,5.8
2017-08-12T02:38:14.884Z,5.8
2017-08-12T02:39:17.636Z,5.7
2017-08-12T02:40:20.399Z,5.8
2017-08-12T02:41:22.821Z,5.8
2017-08-12T02:42:25.236Z,5.8
2017-08-12T02:43:27.996Z,5.8
2017-08-12T02:44:31.452Z,5.8
2017-08-12T02:45:34.195Z,5.8
2017-08-12T02:46:36.618Z,5.8
2017-08-12T02:47:39.023Z,5.7
2017-08-12T02:48:41.810Z,5.8
2017-08-12T02:49:44.571Z,5.8
2017-08-12T02:50:47.332Z,5.7
2017-08-12T02:51:49.754Z,5.7
2017-08-12T02:52:52.749Z,5.8
2017-08-12T02:53:55.173Z,5.7
2017-08-12T02:54:57.938Z,5.8
2017-08-12T02:56:00.681Z,5.8
2017-08-12T02:57:03.102Z,5.8
2017-08-12T02:58:05.523Z,5.8
2017-08-12T02:59:07.938Z,5.8
2017-08-12T03:00:10.991Z,5.7
2017-08-12T03:01:13.397Z,5.7
2017-08-12T03:02:15.829Z,5.8
2017-08-12T03:03:18.916Z,5.8
2017-08-12T03:04:21.330Z,5.7
2017-08-12T03:05:23.751Z,5.7
2017-08-12T03:06:26.157Z,5.7
2017-08-12T03:07:28.569Z,5.8
2017-08-12T03:08:31.006Z,5.7
2017-08-12T03:09:33.416Z,5.7
2017-08-12T03:10:36.627Z,5.8
2017-08-12T03:11:39.085Z,5.7
2017-08-12T03:12:41.488Z,5.7
2017-08-12T03:13:43.902Z,5.7
2017-08-12T03:14:46.327Z,5.7
2017-08-12T03:15:48.735Z,5.7
2017-08-12T03:16:51.494Z,5.8
2017-08-12T03:17:54.249Z,5.7
2017-08-12T03:18:56.681Z,5.7
2017-08-12T03:19:59.115Z,5.7
2017-08-12T03:21:02.145Z,5.7
2017-08-12T03:22:04.901Z,5.8
2017-08-12T03:23:07.656Z,5.8
2017-08-12T03:24:10.447Z,5.7
2017-08-12T03:25:12.855Z,5.8
2017-08-12T03:26:15.302Z,5.8
2017-08-12T03:27:18.065Z,5.7
2017-08-12T03:28:20.886Z,5.8
2017-08-12T03:29:23.308Z,5.7
2017-08-12T03:30:26.085Z,5.8
2017-08-12T03:31:28.839Z,5.7
2017-08-12T03:32:32.622Z,5.7
2017-08-12T03:33:35.044Z,5.7
2017-08-12T03:34:37.810Z,5.7
2017-08-12T03:35:40.548Z,5.7
2017-08-12T03:36:42.969Z,5.7
2017-08-12T03:37:45.388Z,5.8
2017-08-12T03:38:47.801Z,5.7
2017-08-12T03:39:50.218Z,5.7
2017-08-12T03:40:52.631Z,5.7
2017-08-12T03:41:55.046Z,5.7
2017-08-12T03:42:57.499Z,5.7
2017-08-12T03:43:59.909Z,5.7
2017-08-12T03:45:02.321Z,5.7
2017-08-12T03:46:05.426Z,5.7
2017-08-12T03:47:08.172Z,5.6
2017-08-12T03:48:10.596Z,5.7
2017-08-12T03:49:13.017Z,5.7
2017-08-12T03:50:15.768Z,5.7
2017-08-12T03:51:19.204Z,5.7
2017-08-12T03:52:21.624Z,5.7
2017-08-12T03:53:24.028Z,5.7
2017-08-12T03:54:26.799Z,5.6
2017-08-12T03:55:29.213Z,5.7
2017-08-12T03:56:31.631Z,5.6
2017-08-12T03:57:34.046Z,5.7
2017-08-12T03:58:36.469Z,5.6
2017-08-12T03:59:38.927Z,5.7
2017-08-12T04:00:41.340Z,5.7
2017-08-12T04:01:44.421Z,5.7
2017-08-12T04:02:46.842Z,5.7
2017-08-12T04:03:49.609Z,5.7
2017-08-12T04:04:52.025Z,5.7
2017-08-12T04:05:54.776Z,5.7
2017-08-12T04:06:57.884Z,5.7
2017-08-12T04:08:00.283Z,5.6
2017-08-12T04:09:03.414Z,5.6
2017-08-12T04:10:06.191Z,5.7
2017-08-12T04:11:08.610Z,5.7
2017-08-12T04:12:11.028Z,5.6
2017-08-12T04:13:13.437Z,5.7
2017-08-12T04:14:16.211Z,5.7
2017-08-12T04:15:18.623Z,5.6
2017-08-12T04:16:21.379Z,5.7
2017-08-12T04:17:24.170Z,5.7
2017-08-12T04:18:26.581Z,5.7
2017-08-12T04:19:28.999Z,5.6
2017-08-12T04:20:31.402Z,5.8
2017-08-12T04:21:34.166Z,5.7
2017-08-12T04:22:36.591Z,5.7
2017-08-12T04:23:39.016Z,5.7
2017-08-12T04:24:41.436Z,5.7
2017-08-12T04:25:44.181Z,5.6
2017-08-12T04:26:46.599Z,5.6
2017-08-12T04:27:49.357Z,5.7
2017-08-12T04:28:51.771Z,5.6
2017-08-12T04:29:54.191Z,5.6
2017-08-12T04:30:56.977Z,5.7
2017-08-12T04:31:59.745Z,5.6
2017-08-12T04:33:02.492Z,5.7
2017-08-12T04:34:04.910Z,5.6
2017-08-12T04:35:07.341Z,5.6
2017-08-12T04:36:09.750Z,5.7
2017-08-12T04:37:12.172Z,5.7
2017-08-12T04:38:14.592Z,5.7
2017-08-12T04:39:16.999Z,5.7
2017-08-12T04:40:19.420Z,5.7
2017-08-12T04:41:21.844Z,5.6
2017-08-12T04:42:24.923Z,5.6
2017-08-12T04:43:27.342Z,5.7
2017-08-12T04:44:29.764Z,5.5
2017-08-12T04:45:32.186Z,5.6
2017-08-12T04:46:35.633Z,5.7
2017-08-12T04:47:38.060Z,5.6
2017-08-12T04:48:40.815Z,5.7
2017-08-12T04:49:43.904Z,5.7
2017-08-12T04:50:46.663Z,5.6
2017-08-12T04:51:49.063Z,5.6
2017-08-12T04:52:51.489Z,5.5
2017-08-12T04:53:54.242Z,5.7
2017-08-12T04:54:56.999Z,5.6
2017-08-12T04:55:59.412Z,5.6
2017-08-12T04:57:01.860Z,5.6
2017-08-12T04:58:04.606Z,5.7
2017-08-12T04:59:07.371Z,5.6
2017-08-12T05:00:10.131Z,5.6
2017-08-12T05:01:12.538Z,5.7
2017-08-12T05:02:15.296Z,5.7
2017-08-12T05:03:17.712Z,5.7
2017-08-12T05:04:20.457Z,5.6
2017-08-12T05:05:23.211Z,5.7
2017-08-12T05:06:25.629Z,5.6
2017-08-12T05:07:28.042Z,5.7
2017-08-12T05:08:30.464Z,5.6
2017-08-12T05:09:32.877Z,5.6
2017-08-12T05:10:35.980Z,5.6
2017-08-12T05:11:38.393Z,5.7
2017-08-12T05:12:41.155Z,5.6
2017-08-12T05:13:44.591Z,5.6
2017-08-12T05:14:47.016Z,5.7
2017-08-12T05:15:49.769Z,5.7
2017-08-12T05:16:52.185Z,5.7
2017-08-12T05:17:54.951Z,5.7
2017-08-12T05:18:57.364Z,5.6
2017-08-12T05:19:59.770Z,5.6
2017-08-12T05:21:02.523Z,5.6
2017-08-12T05:22:04.941Z,5.7
2017-08-12T05:23:07.713Z,5.6
2017-08-12T05:24:10.136Z,5.6
2017-08-12T05:25:12.544Z,5.7
2017-08-12T05:26:14.952Z,5.7
2017-08-12T05:27:17.375Z,5.7
2017-08-12T05:28:19.784Z,5.7
2017-08-12T05:29:22.202Z,5.7
2017-08-12T05:30:24.665Z,5.7
2017-08-12T05:31:27.078Z,5.7
2017-08-12T05:32:29.831Z,5.7
2017-08-12T05:33:32.254Z,5.7
2017-08-12T05:34:35.011Z,5.6
2017-08-12T05:35:37.776Z,5.7
2017-08-12T05:36:40.531Z,5.7
2017-08-12T05:37:42.940Z,5.7
2017-08-12T05:38:45.363Z,5.7
2017-08-12T05:39:48.469Z,5.6
2017-08-12T05:40:50.881Z,5.6
2017-08-12T05:41:53.291Z,5.7
2017-08-12T05:42:56.049Z,5.7
2017-08-12T05:43:58.463Z,5.7
2017-08-12T05:45:01.559Z,5.7
2017-08-12T05:46:04.656Z,5.7
2017-08-12T05:47:07.082Z,5.7
2017-08-12T05:48:09.839Z,5.7
2017-08-12T05:49:12.930Z,5.7
2017-08-12T05:50:15.706Z,5.7
2017-08-12T05:51:18.111Z,5.7
2017-08-12T05:52:20.883Z,5.8
2017-08-12T05:53:23.300Z,5.7
2017-08-12T05:54:26.055Z,5.7
2017-08-12T05:55:28.807Z,5.7
2017-08-12T05:56:31.230Z,5.7
2017-08-12T05:57:33.654Z,5.8
2017-08-12T05:58:36.082Z,5.8
2017-08-12T05:59:38.501Z,5.8
2017-08-12T06:00:41.248Z,5.7
2017-08-12T06:01:44.009Z,5.7
2017-08-12T06:02:46.433Z,5.7
2017-08-12T06:03:48.850Z,5.8
2017-08-12T06:04:51.605Z,5.8
2017-08-12T06:05:54.363Z,5.8
2017-08-12T06:06:56.768Z,5.8
2017-08-12T06:07:59.203Z,5.8
2017-08-12T06:09:01.625Z,5.8
2017-08-12T06:10:04.735Z,5.8
2017-08-12T06:11:07.488Z,5.7
2017-08-12T06:12:42.074Z,5.8
2017-08-12T06:13:44.549Z,5.8
2017-08-12T06:14:47.730Z,5.8
2017-08-12T06:15:50.226Z,5.9
2017-08-12T06:16:52.701Z,5.8
2017-08-12T06:17:55.191Z,5.9
2017-08-12T06:18:58.358Z,5.8
2017-08-12T06:20:00.858Z,5.8
2017-08-12T06:21:04.025Z,5.9
2017-08-12T06:22:06.869Z,5.8
2017-08-12T06:23:09.703Z,5.9
2017-08-12T06:24:12.567Z,5.8
2017-08-12T06:25:15.740Z,5.8
2017-08-12T06:26:18.253Z,5.8
2017-08-12T06:27:20.757Z,5.8
2017-08-12T06:28:23.244Z,5.8
2017-08-12T06:29:25.731Z,5.8
2017-08-12T06:30:28.248Z,5.8
2017-08-12T06:31:30.743Z,5.8
2017-08-12T06:32:33.227Z,5.9
2017-08-12T06:33:35.711Z,5.8
2017-08-12T06:34:38.871Z,5.8
2017-08-12T06:35:41.375Z,5.8
2017-08-12T06:36:44.224Z,5.8
2017-08-12T06:37:46.711Z,5.8
2017-08-12T06:38:49.534Z,5.8
2017-08-12T06:39:52.358Z,5.8
2017-08-12T06:40:54.859Z,5.8
2017-08-12T06:41:57.345Z,5.8
2017-08-12T06:43:00.166Z,5.9
2017-08-12T06:44:02.658Z,5.8
2017-08-12T06:45:06.184Z,5.8
2017-08-12T06:46:09.034Z,5.8
2017-08-12T06:47:11.866Z,5.8
2017-08-12T06:48:14.361Z,5.8
2017-08-12T06:49:17.194Z,5.8
2017-08-12T06:50:20.031Z,5.8
2017-08-12T06:51:22.510Z,5.8
2017-08-12T06:52:25.006Z,5.8
2017-08-12T06:53:27.486Z,5.9
2017-08-12T06:54:30.305Z,5.7
2017-08-12T06:55:32.846Z,5.8
2017-08-12T06:56:35.321Z,5.8
2017-08-12T06:57:38.148Z,5.8
2017-08-12T06:58:40.654Z,5.8
2017-08-12T06:59:43.486Z,5.8
2017-08-12T07:00:45.984Z,5.8
2017-08-12T07:01:48.479Z,5.8
2017-08-12T07:02:50.966Z,5.8
2017-08-12T07:03:53.795Z,5.8
2017-08-12T07:04:56.973Z,5.8
2017-08-12T07:05:59.480Z,5.9
2017-08-12T07:07:02.304Z,5.8
2017-08-12T07:08:05.142Z,5.8
2017-08-12T07:09:07.962Z,5.8
2017-08-12T07:10:10.458Z,5.8
2017-08-12T07:11:12.943Z,5.8
2017-08-12T07:12:15.449Z,5.9
2017-08-12T07:13:18.273Z,5.8
2017-08-12T07:14:21.804Z,5.8
2017-08-12T07:15:24.621Z,5.9
2017-08-12T07:16:27.113Z,5.8
2017-08-12T07:17:29.617Z,5.9
2017-08-12T07:18:32.100Z,5.8
2017-08-12T07:19:34.602Z,5.8
2017-08-12T07:20:37.088Z,5.8
2017-08-12T07:21:39.574Z,5.8
2017-08-12T07:22:42.081Z,5.9
2017-08-12T07:23:44.906Z,5.9
2017-08-12T07:24:47.721Z,5.8
2017-08-12T07:25:50.205Z,5.9
2017-08-12T07:26:52.700Z,5.9
2017-08-12T07:27:55.196Z,5.9
2017-08-12T07:28:57.691Z,5.8
2017-08-12T07:30:00.536Z,5.9
2017-08-12T07:31:03.374Z,5.9
2017-08-12T07:32:05.863Z,5.9
2017-08-12T07:33:08.358Z,5.8
2017-08-12T07:34:11.187Z,5.8
2017-08-12T07:35:13.687Z,5.9
2017-08-12T07:36:16.856Z,5.9
2017-08-12T07:37:19.331Z,5.8
2017-08-12T07:38:21.815Z,5.9
2017-08-12T07:39:24.665Z,5.8
2017-08-12T07:40:27.483Z,5.8
2017-08-12T07:41:29.976Z,5.9
2017-08-12T07:42:32.459Z,5.8
2017-08-12T07:43:34.984Z,5.9
2017-08-12T07:44:38.152Z,5.9
2017-08-12T07:45:40.667Z,5.9
2017-08-12T07:46:43.144Z,5.9
2017-08-12T07:47:45.648Z,5.9
2017-08-12T07:48:48.153Z,5.9
2017-08-12T07:49:50.629Z,5.9
2017-08-12T07:50:53.122Z,5.9
2017-08-12T07:51:55.612Z,5.9
2017-08-12T07:52:58.109Z,5.9
2017-08-12T07:54:00.931Z,5.9
2017-08-12T07:55:03.753Z,5.9
2017-08-12T07:56:06.232Z,5.9
2017-08-12T07:57:08.731Z,5.9
2017-08-12T07:58:11.219Z,5.9
2017-08-12T07:59:14.053Z,5.8
2017-08-12T08:00:16.542Z,5.9
2017-08-12T08:01:19.381Z,5.9
2017-08-12T08:02:21.858Z,5.9
2017-08-12T08:03:24.356Z,5.9
2017-08-12T08:04:26.845Z,5.9
2017-08-12T08:05:29.325Z,6
2017-08-12T08:06:31.804Z,5.8
2017-08-12T08:07:34.649Z,5.9
2017-08-12T08:08:38.175Z,5.9
2017-08-12T08:09:40.671Z,5.9
2017-08-12T08:10:43.838Z,5.9
2017-08-12T08:11:46.324Z,5.9
2017-08-12T08:12:48.837Z,5.9
2017-08-12T08:13:51.657Z,5.9
2017-08-12T08:14:54.502Z,5.8
2017-08-12T08:15:57.334Z,5.9
2017-08-12T08:17:00.163Z,5.8
2017-08-12T08:18:03.002Z,5.9
2017-08-12T08:19:05.496Z,5.9
2017-08-12T08:20:07.982Z,5.8
2017-08-12T08:21:10.471Z,5.8
2017-08-12T08:22:12.958Z,5.9
2017-08-12T08:23:15.449Z,5.9
2017-08-12T08:24:17.921Z,5.8
2017-08-12T08:25:20.746Z,5.9
2017-08-12T08:26:23.238Z,5.8
2017-08-12T08:27:25.733Z,5.9
2017-08-12T08:28:28.221Z,5.9
2017-08-12T08:29:30.708Z,5.9
2017-08-12T08:30:33.194Z,5.9
2017-08-12T08:31:35.693Z,5.9
2017-08-12T08:32:38.187Z,5.9
2017-08-12T08:33:40.673Z,5.9
2017-08-12T08:34:43.169Z,5.9
2017-08-12T08:35:45.986Z,5.9
2017-08-12T08:36:48.812Z,5.8
2017-08-12T08:37:51.302Z,5.9
2017-08-12T08:38:53.795Z,5.9
2017-08-12T08:39:56.992Z,5.9
2017-08-12T08:40:59.549Z,6
2017-08-12T08:42:02.076Z,5.9
2017-08-12T08:43:04.953Z,5.9
2017-08-12T08:44:08.557Z,6
2017-08-12T08:45:11.492Z,6
2017-08-12T08:46:14.035Z,5.9
2017-08-12T08:47:16.584Z,6
2017-08-12T08:48:19.458Z,6
2017-08-12T08:49:22.313Z,6
2017-08-12T08:50:24.834Z,6
2017-08-12T08:51:27.340Z,6
2017-08-12T08:52:29.882Z,6
2017-08-12T08:53:32.406Z,6
2017-08-12T08:54:35.272Z,5.9
2017-08-12T08:55:37.820Z,6
2017-08-12T08:56:40.335Z,6
2017-08-12T08:57:42.833Z,6
2017-08-12T08:58:45.351Z,6
2017-08-12T08:59:48.214Z,6
2017-08-12T09:00:51.132Z,6
2017-08-12T09:01:53.630Z,6.1
2017-08-12T09:02:56.567Z,6.1
2017-08-12T09:03:59.139Z,6
2017-08-12T09:05:01.677Z,6.1
2017-08-12T09:06:04.568Z,6.1
2017-08-12T09:07:07.116Z,6
2017-08-12T09:08:09.973Z,6.1
2017-08-12T09:09:12.515Z,6.1
2017-08-12T09:10:15.791Z,6.1
2017-08-12T09:11:18.346Z,6.1
2017-08-12T09:12:20.855Z,6.1
2017-08-12T09:13:23.353Z,6.1
2017-08-12T09:14:26.065Z,6.1
2017-08-12T09:15:28.908Z,6.1
2017-08-12T09:16:31.403Z,6.1
2017-08-12T09:17:33.917Z,6.1
2017-08-12T09:18:36.423Z,6.1
2017-08-12T09:19:38.925Z,6.1
2017-08-12T09:20:42.112Z,6.2
2017-08-12T09:21:44.654Z,6.2
2017-08-12T09:22:47.142Z,6.2
2017-08-12T09:23:50.328Z,6.2
2017-08-12T09:24:53.153Z,6.2
2017-08-12T09:25:55.643Z,6.2
2017-08-12T09:26:58.497Z,6.2
2017-08-12T09:28:00.998Z,6.2
2017-08-12T09:29:03.821Z,6.2
2017-08-12T09:30:06.703Z,6.2
2017-08-12T09:31:09.210Z,6.2
2017-08-12T09:32:12.049Z,6.2
2017-08-12T09:33:14.551Z,6.1
2017-08-12T09:34:17.049Z,6.1
2017-08-12T09:35:19.888Z,6.2
2017-08-12T09:36:22.736Z,6.1
2017-08-12T09:37:25.242Z,6.2
2017-08-12T09:38:29.234Z,6.2
2017-08-12T09:39:31.752Z,6.2
2017-08-12T09:40:34.256Z,6.2
2017-08-12T09:41:36.762Z,6.2
2017-08-12T09:42:39.271Z,6.2
2017-08-12T09:43:42.095Z,6.2
2017-08-12T09:44:44.706Z,6.2
2017-08-12T09:45:47.649Z,6.2
2017-08-12T09:46:50.477Z,6.2
2017-08-12T09:47:53.329Z,6.2
2017-08-12T09:48:55.834Z,6.2
2017-08-12T09:49:59.018Z,6.2
2017-08-12T09:51:01.535Z,6.1
2017-08-12T09:52:04.364Z,6.2
2017-08-12T09:53:07.180Z,6.2
2017-08-12T09:54:09.686Z,6.2
2017-08-12T09:55:12.209Z,6.2
2017-08-12T09:56:14.718Z,6.2
2017-08-12T09:57:17.225Z,6.2
2017-08-12T09:58:19.720Z,6.2
2017-08-12T09:59:22.221Z,6.2
2017-08-12T10:00:24.720Z,6.2
2017-08-12T10:01:27.224Z,6.2
2017-08-12T10:02:29.722Z,6.2
2017-08-12T10:03:32.232Z,6.2
2017-08-12T10:04:34.741Z,6.2
2017-08-12T10:05:37.576Z,6.2
2017-08-12T10:06:40.068Z,6.2
2017-08-12T10:07:42.578Z,6.2
2017-08-12T10:08:45.411Z,6.1
2017-08-12T10:09:48.256Z,6.2
2017-08-12T10:10:51.095Z,6.2
2017-08-12T10:11:53.580Z,6.2
2017-08-12T10:12:56.083Z,6.2
2017-08-12T10:13:58.567Z,6.2
2017-08-12T10:15:01.075Z,6.2
2017-08-12T10:16:04.258Z,6.2
2017-08-12T10:17:06.742Z,6.2
2017-08-12T10:18:09.584Z,6.2
2017-08-12T10:19:12.105Z,6.2
2017-08-12T10:20:14.593Z,6.3
2017-08-12T10:21:17.806Z,6.3
2017-08-12T10:22:20.642Z,6.3
2017-08-12T10:23:23.155Z,6.3
2017-08-12T10:24:25.666Z,6.3
2017-08-12T10:25:28.214Z,6.3
2017-08-12T10:26:30.690Z,6.4
2017-08-12T10:27:33.202Z,6.4
2017-08-12T10:28:36.034Z,6.4
2017-08-12T10:29:38.577Z,6.4
2017-08-12T10:30:41.076Z,6.4
2017-08-12T10:31:43.589Z,6.4
2017-08-12T10:32:46.452Z,6.4
2017-08-12T10:33:48.926Z,6.4
2017-08-12T10:34:51.436Z,6.3
2017-08-12T10:35:53.940Z,6.4
2017-08-12T10:36:56.446Z,6.4
2017-08-12T10:37:58.945Z,6.4
2017-08-12T10:39:01.437Z,6.4
2017-08-12T10:40:04.288Z,6.4
2017-08-12T10:41:07.141Z,6.4
2017-08-12T10:42:09.975Z,6.4
2017-08-12T10:43:12.494Z,6.4
2017-08-12T10:44:15.003Z,6.4
2017-08-12T10:45:17.498Z,6.5
2017-08-12T10:46:19.993Z,6.4
2017-08-12T10:47:22.843Z,6.4
2017-08-12T10:48:25.674Z,6.4
2017-08-12T10:49:28.509Z,6.4
2017-08-12T10:50:31.354Z,6.4
2017-08-12T10:51:33.841Z,6.4
2017-08-12T10:52:37.050Z,6.4
2017-08-12T10:53:39.905Z,6.4
2017-08-12T10:54:42.733Z,6.4
2017-08-12T10:55:45.233Z,6.4
2017-08-12T10:56:48.085Z,6.4
2017-08-12T10:57:50.930Z,6.4
2017-08-12T10:58:53.814Z,6.4
2017-08-12T10:59:56.716Z,6.4
2017-08-12T11:00:59.201Z,6.4
2017-08-12T11:02:02.373Z,6.4
2017-08-12T11:03:04.870Z,6.4
2017-08-12T11:04:07.710Z,6.4
2017-08-12T11:05:10.219Z,6.5
2017-08-12T11:06:13.054Z,6.5
2017-08-12T11:07:15.560Z,6.4
2017-08-12T11:08:18.078Z,6.5
2017-08-12T11:09:20.593Z,6.5
2017-08-12T11:10:23.426Z,6.5
2017-08-12T11:11:26.252Z,6.5
2017-08-12T11:12:29.087Z,6.4
2017-08-12T11:13:31.577Z,6.5
2017-08-12T11:14:34.070Z,6.5
2017-08-12T11:15:36.566Z,6.5
2017-08-12T11:16:39.049Z,6.5
2017-08-12T11:17:42.233Z,6.5
2017-08-12T11:18:44.730Z,6.5
2017-08-12T11:19:47.576Z,6.4
2017-08-12T11:20:50.067Z,6.5
2017-08-12T11:21:53.267Z,6.5
2017-08-12T11:22:55.761Z,6.5
2017-08-12T11:23:58.261Z,6.4
2017-08-12T11:25:01.092Z,6.5
2017-08-12T11:26:03.589Z,6.5
2017-08-12T11:27:06.104Z,6.5
2017-08-12T11:28:08.940Z,6.5
2017-08-12T11:29:11.775Z,6.5
2017-08-12T11:30:14.278Z,6.5
2017-08-12T11:31:16.779Z,6.5
2017-08-12T11:32:19.286Z,6.5
2017-08-12T11:33:22.125Z,6.5
2017-08-12T11:34:24.621Z,6.5
2017-08-12T11:35:27.123Z,6.5
2017-08-12T11:36:29.657Z,6.5
2017-08-12T11:37:32.153Z,6.6
2017-08-12T11:38:34.999Z,6.6
2017-08-12T11:39:37.488Z,6.6
2017-08-12T11:40:40.349Z,6.6
2017-08-12T11:41:42.841Z,6.6
2017-08-12T11:42:45.361Z,6.6
2017-08-12T11:43:47.853Z,6.6
2017-08-12T11:44:50.347Z,6.6
2017-08-12T11:45:52.823Z,6.6
2017-08-12T11:46:55.261Z,6.6
2017-08-12T11:47:58.031Z,6.6
2017-08-12T11:49:00.468Z,6.6
2017-08-12T11:50:03.566Z,6.6
2017-08-12T11:51:05.984Z,6.6
2017-08-12T11:52:08.755Z,6.6
2017-08-12T11:53:11.175Z,6.6
2017-08-12T11:54:13.935Z,6.6
2017-08-12T11:55:16.365Z,6.6
2017-08-12T11:56:19.130Z,6.6
2017-08-12T11:57:21.559Z,6.6
2017-08-12T11:58:23.982Z,6.6
2017-08-12T11:59:26.401Z,6.6
2017-08-12T12:00:28.833Z,6.6
2017-08-12T12:01:31.254Z,6.6
2017-08-12T12:02:33.670Z,6.6
2017-08-12T12:03:36.473Z,6.6
2017-08-12T12:04:38.905Z,6.5
2017-08-12T12:05:41.333Z,6.6
2017-08-12T12:06:43.758Z,6.6
2017-08-12T12:07:46.192Z,6.6
2017-08-12T12:08:49.319Z,6.6
2017-08-12T12:09:51.748Z,6.5
2017-08-12T12:10:54.564Z,6.6
2017-08-12T12:11:57.338Z,6.5
2017-08-12T12:12:59.786Z,6.6
2017-08-12T12:14:02.912Z,6.6
2017-08-12T12:15:05.709Z,6.5
2017-08-12T12:16:08.189Z,6.5
2017-08-12T12:17:10.624Z,6.5
2017-08-12T12:18:13.053Z,6.5
2017-08-12T12:19:16.213Z,6.5
2017-08-12T12:20:18.702Z,6.5
2017-08-12T12:21:21.147Z,6.5
2017-08-12T12:22:23.629Z,6.5
2017-08-12T12:23:26.076Z,6.5
2017-08-12T12:24:28.594Z,6.5
2017-08-12T12:25:31.352Z,6.5
2017-08-12T12:26:34.128Z,6.5
2017-08-12T12:28:06.634Z,6.5
2017-08-12T12:29:09.396Z,6.4
2017-08-12T12:30:11.869Z,6.5
2017-08-12T12:31:14.303Z,6.5
2017-08-12T12:32:16.727Z,6.5
2017-08-12T12:33:19.157Z,6.4
2017-08-12T12:34:21.724Z,6.5
2017-08-12T12:35:24.172Z,6.4
2017-08-12T12:36:26.968Z,6.4
2017-08-12T12:37:30.055Z,6.5
2017-08-12T12:38:32.515Z,6.4
2017-08-12T12:39:35.693Z,6.5
2017-08-12T12:40:38.103Z,6.4
2017-08-12T12:41:40.913Z,6.4
2017-08-12T12:42:43.665Z,6.4
2017-08-12T12:43:46.133Z,6.5
2017-08-12T12:44:49.562Z,6.4
2017-08-12T12:45:52.076Z,6.4
2017-08-12T12:46:54.674Z,6.4
2017-08-12T12:47:57.339Z,6.5
2017-08-12T12:48:59.760Z,6.4
2017-08-12T12:50:02.198Z,6.4
2017-08-12T12:51:05.325Z,6.4
2017-08-12T12:52:08.103Z,6.4
2017-08-12T12:53:10.525Z,6.4
2017-08-12T12:54:12.957Z,6.5
2017-08-12T12:55:15.874Z,6.4
2017-08-12T12:56:18.281Z,6.4
2017-08-12T12:57:20.840Z,6.4
2017-08-12T12:58:23.267Z,6.4
2017-08-12T12:59:26.231Z,6.4
2017-08-12T13:00:29.000Z,6.4
2017-08-12T13:01:31.420Z,6.4
2017-08-12T13:02:34.091Z,6.4
2017-08-12T13:03:36.863Z,6.4
2017-08-12T13:04:39.297Z,6.5
2017-08-12T13:05:41.726Z,6.4
2017-08-12T13:06:44.845Z,6.4
2017-08-12T13:07:47.609Z,6.4
2017-08-12T13:08:50.025Z,6.4
2017-08-12T13:09:52.776Z,6.4
2017-08-12T13:10:55.558Z,6.4
2017-08-12T13:11:58.522Z,6.4
2017-08-12T13:13:01.335Z,6.4
2017-08-12T13:14:04.468Z,6.4
2017-08-12T13:15:07.731Z,6.4
2017-08-12T13:16:11.119Z,6.4
2017-08-12T13:17:13.726Z,6.4
2017-08-12T13:18:16.607Z,6.4
2017-08-12T13:19:19.536Z,6.4
2017-08-12T13:20:22.733Z,6.4
2017-08-12T13:21:25.168Z,6.4
2017-08-12T13:22:28.140Z,6.4
2017-08-12T13:23:30.710Z,6.4
2017-08-12T13:24:33.540Z,6.4
2017-08-12T13:25:36.812Z,6.4
2017-08-12T13:26:39.927Z,6.4
2017-08-12T13:27:42.748Z,6.4
2017-08-12T13:28:45.375Z,6.4
2017-08-12T13:29:47.859Z,6.4
2017-08-12T13:30:50.388Z,6.4
2017-08-12T13:31:53.814Z,6.4
2017-08-12T13:32:56.275Z,6.4
2017-08-12T13:33:59.188Z,6.3
2017-08-12T13:35:02.045Z,6.4
2017-08-12T13:36:05.244Z,6.4
2017-08-12T13:37:08.127Z,6.4
2017-08-12T13:38:10.736Z,6.4
2017-08-12T13:39:13.200Z,6.4
2017-08-12T13:40:15.799Z,6.4
2017-08-12T13:41:18.461Z,6.4
2017-08-12T13:42:21.172Z,6.4
2017-08-12T13:43:24.105Z,6.3
2017-08-12T13:44:27.141Z,6.4
2017-08-12T13:45:29.785Z,6.3
2017-08-12T13:46:32.793Z,6.3
2017-08-12T13:47:35.355Z,6.3
2017-08-12T13:48:38.083Z,6.4
2017-08-12T13:49:40.723Z,6.4
2017-08-12T13:50:43.660Z,6.4
2017-08-12T13:51:46.450Z,6.4
2017-08-12T13:52:49.457Z,6.4
2017-08-12T13:53:52.272Z,6.4
2017-08-12T13:54:55.135Z,6.4
2017-08-12T13:55:58.072Z,6.3
2017-08-12T13:57:00.686Z,6.3
2017-08-12T13:58:03.556Z,6.3
2017-08-12T13:59:06.310Z,6.3
2017-08-12T14:00:08.959Z,6.3
2017-08-12T14:01:11.766Z,6.4
2017-08-12T14:02:15.066Z,6.3
2017-08-12T14:03:18.140Z,6.3
2017-08-12T14:04:20.655Z,6.3
2017-08-12T14:05:23.173Z,6.3
2017-08-12T14:06:27.603Z,6.3
2017-08-12T14:07:31.961Z,6.3
2017-08-12T14:08:35.063Z,6.3
2017-08-12T14:09:37.508Z,6.3
2017-08-12T14:10:39.921Z,6.3
2017-08-12T14:11:42.685Z,6.3
2017-08-12T14:12:45.094Z,6.3
2017-08-12T14:13:47.504Z,6.3
2017-08-12T14:14:50.262Z,6.3
2017-08-12T14:15:53.022Z,6.3
2017-08-12T14:16:55.782Z,6.3
2017-08-12T14:17:58.538Z,6.3
2017-08-12T14:19:01.298Z,6.3
2017-08-12T14:20:04.396Z,6.3
2017-08-12T14:21:07.196Z,6.3
2017-08-12T14:22:09.614Z,6.3
2017-08-12T14:23:12.399Z,6.3
2017-08-12T14:24:14.903Z,6.3
2017-08-12T14:25:17.382Z,6.3